createdAt,value
2022-08-03T00:02:15.899Z,24.24
2022-08-03T00:04:43.512Z,24.14
2022-08-03T00:07:10.751Z,24.08
2022-08-03T00:09:37.837Z,24.15
2022-08-03T00:12:05.385Z,23.91
2022-08-03T00:14:32.623Z,23.89
2022-08-03T00:16:59.751Z,24.11
2022-08-03T00:19:27.942Z,23.38
2022-08-03T00:21:55.093Z,23.88
2022-08-03T00:24:22.216Z,24.02
2022-08-03T00:26:49.614Z,23.93
2022-08-03T00:29:16.734Z,23.94
2022-08-03T00:31:52.669Z,23.82
2022-08-03T00:34:36.566Z,23.92
2022-08-03T00:37:13.770Z,23.75
2022-08-03T00:39:43.452Z,23.73
2022-08-03T00:42:10.593Z,23.41
2022-08-03T00:44:41.212Z,23.24
2022-08-03T00:47:10.327Z,23.50
2022-08-03T00:49:38.190Z,23.57
2022-08-03T00:52:07.840Z,23.36
2022-08-03T00:54:40.279Z,23.46
2022-08-03T00:57:07.537Z,23.46
2022-08-03T00:59:34.786Z,23.04
2022-08-03T01:02:02.363Z,22.88
2022-08-03T01:04:29.482Z,23.01
2022-08-03T01:07:00.422Z,23.16
2022-08-03T01:09:31.763Z,23.06
2022-08-03T01:12:08.886Z,22.90
2022-08-03T01:14:38.640Z,23.02
2022-08-03T01:17:12.357Z,22.91
2022-08-03T01:19:39.919Z,22.86
2022-08-03T01:22:27.873Z,22.87
2022-08-03T01:25:14.273Z,23.16
2022-08-03T01:27:57.969Z,22.99
2022-08-03T01:30:27.837Z,22.94
2022-08-03T01:33:01.174Z,23.30
2022-08-03T01:35:35.526Z,23.13
2022-08-03T01:38:15.611Z,23.24
2022-08-03T01:40:43.039Z,23.24
2022-08-03T01:43:11.457Z,23.23
2022-08-03T01:45:38.585Z,23.23
2022-08-03T01:48:06.185Z,22.97
2022-08-03T01:50:34.329Z,23.23
2022-08-03T01:53:01.526Z,23.39
2022-08-03T01:55:28.918Z,23.32
2022-08-03T01:58:06.177Z,22.90
2022-08-03T02:00:35.330Z,22.80
2022-08-03T02:03:02.735Z,22.92
2022-08-03T02:05:29.838Z,22.97
2022-08-03T02:07:57.089Z,23.08
2022-08-03T02:10:34.667Z,22.74
2022-08-03T02:13:03.291Z,22.71
2022-08-03T02:15:30.673Z,22.63
2022-08-03T02:17:57.801Z,22.92
2022-08-03T02:20:24.962Z,22.95
2022-08-03T02:22:52.393Z,23.18
2022-08-03T02:25:19.511Z,23.15
2022-08-03T02:27:49.086Z,22.81
2022-08-03T02:30:16.504Z,23.03
2022-08-03T02:32:44.217Z,22.41
2022-08-03T02:35:11.793Z,22.83
2022-08-03T02:37:42.988Z,22.99
2022-08-03T02:40:16.826Z,22.65
2022-08-03T02:42:44.321Z,22.75
2022-08-03T02:45:13.943Z,22.99
2022-08-03T02:47:54.241Z,22.95
2022-08-03T02:50:22.926Z,22.91
2022-08-03T02:52:50.437Z,22.57
2022-08-03T02:55:17.545Z,22.47
2022-08-03T02:57:44.935Z,22.58
2022-08-03T03:00:12.353Z,22.38
2022-08-03T03:02:40.188Z,22.61
2022-08-03T03:05:55.894Z,22.43
2022-08-03T03:07:59.056Z,22.54
2022-08-03T03:10:26.536Z,22.45
2022-08-03T03:12:55.369Z,22.29
2022-08-03T03:15:22.631Z,22.82
2022-08-03T03:17:50.165Z,22.88
2022-08-03T03:20:29.690Z,22.87
2022-08-03T03:23:01.383Z,22.91
2022-08-03T03:25:32.103Z,22.97
2022-08-03T03:27:59.944Z,22.90
2022-08-03T03:30:27.057Z,22.84
2022-08-03T03:32:54.189Z,22.82
2022-08-03T03:35:21.592Z,22.94
2022-08-03T03:37:48.723Z,22.79
2022-08-03T03:40:15.838Z,22.91
2022-08-03T03:42:43.233Z,22.92
2022-08-03T03:45:10.592Z,22.94
2022-08-03T03:47:37.688Z,22.86
2022-08-03T03:50:05.577Z,22.67
2022-08-03T03:52:33.027Z,22.17
2022-08-03T03:55:01.250Z,22.73
2022-08-03T03:57:29.435Z,22.72
2022-08-03T03:59:56.646Z,22.85
2022-08-03T04:02:23.808Z,22.95
2022-08-03T04:05:09.722Z,22.83
2022-08-03T04:07:59.246Z,23.08
2022-08-03T04:10:45.318Z,23.17
2022-08-03T04:13:12.483Z,23.24
2022-08-03T04:15:40.039Z,22.66
2022-08-03T04:18:07.360Z,23.03
2022-08-03T04:20:34.848Z,23.14
2022-08-03T04:23:02.232Z,23.20
2022-08-03T04:25:30.423Z,22.88
2022-08-03T04:28:21.035Z,22.95
2022-08-03T04:30:48.230Z,23.25
2022-08-03T04:33:15.432Z,23.39
2022-08-03T04:35:59.699Z,23.10
2022-08-03T04:38:30.535Z,23.13
2022-08-03T04:40:57.647Z,23.56
2022-08-03T04:43:24.729Z,23.79
2022-08-03T04:45:52.176Z,23.92
2022-08-03T04:48:20.039Z,24.05
2022-08-03T04:50:47.312Z,23.53
2022-08-03T04:53:14.901Z,23.73
2022-08-03T04:55:42.096Z,24.27
2022-08-03T04:58:09.239Z,24.40
2022-08-03T05:00:36.688Z,24.53
2022-08-03T05:03:03.830Z,24.84
2022-08-03T05:05:49.761Z,25.01
2022-08-03T05:08:20.279Z,25.40
2022-08-03T05:10:55.429Z,26.43
2022-08-03T05:13:26.452Z,27.94
2022-08-03T05:15:53.639Z,29.40
2022-08-03T05:18:21.269Z,30.78
2022-08-03T05:20:48.452Z,32.15
2022-08-03T05:23:15.565Z,33.22
2022-08-03T05:25:49.728Z,34.19
2022-08-03T05:28:17.301Z,35.29
2022-08-03T05:30:44.802Z,36.20
2022-08-03T05:33:11.910Z,37.15
2022-08-03T05:36:01.346Z,38.16
2022-08-03T05:38:28.736Z,38.96
2022-08-03T05:41:21.784Z,39.52
2022-08-03T05:43:47.614Z,40.19
2022-08-03T05:46:14.837Z,40.69
2022-08-03T05:48:42.312Z,41.09
2022-08-03T05:51:11.440Z,41.66
2022-08-03T05:53:39.917Z,42.15
2022-08-03T05:56:14.507Z,41.96
2022-08-03T05:58:46.642Z,42.51
2022-08-03T06:01:14.336Z,42.65
2022-08-03T06:03:41.877Z,42.78
2022-08-03T06:06:09.038Z,38.51
2022-08-03T06:08:36.158Z,41.16
2022-08-03T06:11:03.798Z,40.91
2022-08-03T06:13:30.932Z,42.33
2022-08-03T06:15:58.047Z,40.71
2022-08-03T06:18:25.454Z,42.47
2022-08-03T06:20:52.980Z,41.97
2022-08-03T06:23:20.236Z,41.33
2022-08-03T06:25:47.638Z,41.09
2022-08-03T06:31:02.300Z,41.63
2022-08-03T06:34:30.933Z,42.36
2022-08-03T06:36:17.003Z,41.28
2022-08-03T06:38:44.159Z,38.57
2022-08-03T06:41:11.260Z,40.51
2022-08-03T06:44:02.640Z,40.40
2022-08-03T06:46:25.982Z,41.87
2022-08-03T06:48:53.523Z,37.77
2022-08-03T06:51:20.660Z,40.05
2022-08-03T06:54:08.230Z,39.66
2022-08-03T06:56:35.345Z,38.92
2022-08-03T06:59:02.464Z,38.00
2022-08-03T07:01:29.988Z,40.63
2022-08-03T07:03:57.218Z,39.08
2022-08-03T07:06:24.750Z,41.21
2022-08-03T07:08:55.446Z,39.43
2022-08-03T07:11:24.891Z,38.89
2022-08-03T07:13:52.313Z,41.72
2022-08-03T07:16:19.438Z,41.86
2022-08-03T07:18:46.555Z,42.22
2022-08-03T07:21:13.938Z,42.62
2022-08-03T07:23:41.038Z,43.50
2022-08-03T07:26:08.164Z,44.35
2022-08-03T07:28:35.573Z,41.79
2022-08-03T07:31:02.699Z,42.96
2022-08-03T07:33:29.858Z,44.75
2022-08-03T07:35:57.253Z,44.55
2022-08-03T07:38:24.362Z,43.32
2022-08-03T07:40:51.500Z,43.93
